createdAt,value
2018-12-05T00:00:15.428Z,21.01
2018-12-05T00:02:41.872Z,21.00
2018-12-05T00:05:08.410Z,21.00
2018-12-05T00:07:34.941Z,21.01
2018-12-05T00:10:01.614Z,21.00
2018-12-05T00:12:28.201Z,20.99
2018-12-05T00:14:54.873Z,20.99
2018-12-05T00:17:21.360Z,20.99
2018-12-05T00:20:51.305Z,20.98
2018-12-05T00:23:17.741Z,20.97
2018-12-05T00:25:44.274Z,20.97
2018-12-05T00:28:10.810Z,20.97
2018-12-05T00:30:37.223Z,20.96
2018-12-05T00:33:03.685Z,20.96
2018-12-05T00:35:30.205Z,20.96
2018-12-05T00:37:56.616Z,20.96
2018-12-05T00:47:09.192Z,20.95
2018-12-05T00:49:35.680Z,20.93
2018-12-05T00:52:02.140Z,20.93
2018-12-05T00:54:28.568Z,20.93
2018-12-05T00:56:55.020Z,20.94
2018-12-05T00:59:21.542Z,20.92
2018-12-05T01:01:47.992Z,20.94
2018-12-05T01:04:14.516Z,20.92
2018-12-05T01:06:40.968Z,20.93
2018-12-05T01:09:08.240Z,20.93
2018-12-05T01:11:34.792Z,20.92
2018-12-05T01:14:01.364Z,20.92
2018-12-05T01:16:27.815Z,20.91
2018-12-05T01:18:54.339Z,20.91
2018-12-05T01:21:20.892Z,20.91
2018-12-05T01:23:47.301Z,20.91
2018-12-05T01:26:13.755Z,20.89
2018-12-05T01:28:40.276Z,20.91
2018-12-05T01:31:06.824Z,20.91
2018-12-05T01:33:33.242Z,20.91
2018-12-05T01:35:59.701Z,20.90
2018-12-05T01:38:26.200Z,20.90
2018-12-05T01:40:52.642Z,20.91
2018-12-05T01:43:19.093Z,20.89
2018-12-05T01:45:45.510Z,20.89
2018-12-05T01:48:11.965Z,20.90
2018-12-05T01:50:38.481Z,20.89
2018-12-05T01:53:05.041Z,20.89
2018-12-05T01:55:31.660Z,20.89
2018-12-05T01:57:58.093Z,20.89
2018-12-05T02:00:24.612Z,20.89
2018-12-05T02:02:51.070Z,20.89
2018-12-05T02:05:17.485Z,20.89
2018-12-05T02:07:44.051Z,20.89
2018-12-05T02:10:10.556Z,20.87
2018-12-05T02:12:37.001Z,20.87
2018-12-05T02:15:04.055Z,20.88
2018-12-05T02:17:30.686Z,20.85
2018-12-05T02:19:57.214Z,20.86
2018-12-05T02:22:23.658Z,20.87
2018-12-05T02:24:50.180Z,20.86
2018-12-05T02:27:16.734Z,20.87
2018-12-05T02:29:43.248Z,20.87
2018-12-05T02:32:09.690Z,20.85
2018-12-05T02:34:36.463Z,20.86
2018-12-05T02:37:03.169Z,20.85
2018-12-05T02:39:29.709Z,20.86
2018-12-05T02:41:56.129Z,20.86
2018-12-05T02:44:22.693Z,20.85
2018-12-05T02:46:49.302Z,20.85
2018-12-05T02:49:15.757Z,20.84
2018-12-05T02:51:42.261Z,20.85
2018-12-05T02:54:08.713Z,20.83
2018-12-05T02:56:35.137Z,20.82
2018-12-05T02:59:01.689Z,20.81
2018-12-05T03:01:28.193Z,20.82
2018-12-05T03:03:54.648Z,20.80
2018-12-05T03:06:21.069Z,20.79
2018-12-05T03:08:47.517Z,20.79
2018-12-05T03:11:14.034Z,20.77
2018-12-05T03:13:40.597Z,20.77
2018-12-05T03:16:07.102Z,20.78
2018-12-05T03:18:33.658Z,20.76
2018-12-05T03:21:00.161Z,20.76
2018-12-05T03:23:26.613Z,20.75
2018-12-05T03:25:53.153Z,20.75
2018-12-05T03:28:19.589Z,20.73
2018-12-05T03:30:46.127Z,20.73
2018-12-05T03:33:12.735Z,20.73
2018-12-05T03:35:39.193Z,20.70
2018-12-05T03:38:05.977Z,20.68
2018-12-05T03:40:32.609Z,20.68
2018-12-05T03:42:59.206Z,20.68
2018-12-05T03:45:25.757Z,20.68
2018-12-05T03:47:52.250Z,20.67
2018-12-05T03:50:18.825Z,20.68
2018-12-05T03:52:45.425Z,20.72
2018-12-05T03:55:11.881Z,20.72
2018-12-05T03:57:38.301Z,20.74
2018-12-05T04:00:05.101Z,20.75
2018-12-05T04:02:31.570Z,20.76
2018-12-05T04:04:58.005Z,20.78
2018-12-05T04:07:24.425Z,20.80
2018-12-05T04:09:51.203Z,20.80
2018-12-05T04:12:17.821Z,20.81
2018-12-05T04:14:44.278Z,20.82
2018-12-05T04:17:10.769Z,20.83
2018-12-05T04:19:37.352Z,20.84
2018-12-05T04:22:04.068Z,20.86
2018-12-05T04:24:30.518Z,20.85
2018-12-05T04:26:57.114Z,20.86
2018-12-05T04:29:23.673Z,20.86
2018-12-05T04:31:50.094Z,20.88
2018-12-05T04:34:16.641Z,20.88
2018-12-05T04:36:43.073Z,20.89
2018-12-05T04:39:09.485Z,20.88
2018-12-05T04:41:35.957Z,20.89
2018-12-05T04:44:02.690Z,20.90
2018-12-05T04:46:29.229Z,20.90
2018-12-05T04:48:55.737Z,20.91
2018-12-05T04:51:22.196Z,20.90
2018-12-05T04:53:48.808Z,20.90
2018-12-05T04:56:15.366Z,20.91
2018-12-05T04:58:41.880Z,20.91
2018-12-05T05:01:08.591Z,20.89
2018-12-05T05:03:35.158Z,20.90
2018-12-05T05:06:01.589Z,20.89
2018-12-05T05:08:28.007Z,20.89
2018-12-05T05:10:54.587Z,20.88
2018-12-05T05:13:21.193Z,20.89
2018-12-05T05:15:47.629Z,20.88
2018-12-05T05:18:14.206Z,20.88
2018-12-05T05:20:40.704Z,20.89
2018-12-05T05:23:07.233Z,20.86
2018-12-05T05:25:33.705Z,20.86
2018-12-05T05:28:00.189Z,20.87
2018-12-05T05:30:26.753Z,20.86
2018-12-05T05:32:53.251Z,20.85
2018-12-05T05:35:21.077Z,20.87
2018-12-05T05:37:47.586Z,20.86
2018-12-05T05:40:14.090Z,20.84
2018-12-05T05:42:40.558Z,20.84
2018-12-05T05:45:07.060Z,20.83
2018-12-05T05:47:33.618Z,20.84
2018-12-05T05:50:00.029Z,20.83
2018-12-05T05:52:26.481Z,20.82
2018-12-05T05:54:52.897Z,20.81
2018-12-05T05:57:19.349Z,20.81
2018-12-05T05:59:46.181Z,20.81
2018-12-05T06:02:12.629Z,20.80
2018-12-05T06:04:39.245Z,20.80
2018-12-05T06:07:05.685Z,20.79
2018-12-05T06:09:32.105Z,20.77
2018-12-05T06:11:58.677Z,20.80
2018-12-05T06:14:25.162Z,20.81
2018-12-05T06:16:51.621Z,20.78
2018-12-05T06:19:18.034Z,20.78
2018-12-05T06:21:44.477Z,20.78
2018-12-05T06:24:10.913Z,20.78
2018-12-05T06:26:37.469Z,20.77
2018-12-05T06:29:04.091Z,20.78
2018-12-05T06:31:30.505Z,20.77
2018-12-05T06:33:56.958Z,20.77
2018-12-05T06:36:23.377Z,20.77
2018-12-05T06:38:49.813Z,20.80
2018-12-05T06:41:16.229Z,20.84
2018-12-05T06:43:42.685Z,20.80
2018-12-05T06:46:09.099Z,20.81
2018-12-05T06:48:35.553Z,20.80
2018-12-05T06:51:01.970Z,20.79
2018-12-05T06:53:28.518Z,20.78
2018-12-05T06:55:54.951Z,20.77
2018-12-05T06:58:21.493Z,20.74
2018-12-05T07:00:48.009Z,20.74
2018-12-05T07:03:14.458Z,20.72
2018-12-05T07:05:40.957Z,20.70
2018-12-05T07:08:07.424Z,20.70
2018-12-05T07:10:33.953Z,20.69
2018-12-05T07:13:00.389Z,20.68
2018-12-05T07:15:26.917Z,20.70
2018-12-05T07:17:53.337Z,20.84
2018-12-05T07:20:19.893Z,20.93
2018-12-05T07:22:46.308Z,21.03
2018-12-05T07:25:12.883Z,21.11
2018-12-05T07:27:39.478Z,21.23
2018-12-05T07:30:06.172Z,21.31
2018-12-05T07:32:32.744Z,21.34
2018-12-05T07:34:59.197Z,21.42
2018-12-05T07:37:25.630Z,21.49
2018-12-05T07:39:52.388Z,21.53
2018-12-05T07:42:18.893Z,21.59
2018-12-05T07:44:45.353Z,21.64
2018-12-05T07:47:11.758Z,21.70
2018-12-05T07:49:38.211Z,21.75
2018-12-05T07:52:04.630Z,21.80
2018-12-05T07:54:31.073Z,21.81
2018-12-05T07:56:57.494Z,21.89
2018-12-05T07:59:24.053Z,21.96
2018-12-05T08:01:50.558Z,21.98
2018-12-05T08:04:17.017Z,22.05
2018-12-05T08:06:43.433Z,22.11
2018-12-05T08:09:09.855Z,22.15
2018-12-05T08:11:36.433Z,22.17
2018-12-05T08:14:03.082Z,22.23
2018-12-05T08:16:29.677Z,22.26
2018-12-05T08:18:56.104Z,22.31
2018-12-05T08:21:22.560Z,22.38
2018-12-05T08:25:18.726Z,22.41
2018-12-05T08:27:45.198Z,22.47
2018-12-05T08:30:11.661Z,22.48
2018-12-05T08:32:38.262Z,22.45
2018-12-05T08:35:05.149Z,22.48
2018-12-05T08:37:31.665Z,22.52
2018-12-05T08:39:58.306Z,22.49
2018-12-05T08:42:24.845Z,22.55
2018-12-05T08:44:51.244Z,22.59
2018-12-05T08:47:17.701Z,22.64
2018-12-05T08:49:44.114Z,22.64
2018-12-05T08:52:10.565Z,22.62
2018-12-05T08:54:37.010Z,22.61
2018-12-05T08:57:03.549Z,22.61
2018-12-05T08:59:30.057Z,22.62
2018-12-05T09:01:56.517Z,22.63
2018-12-05T09:04:23.013Z,22.63
2018-12-05T09:06:49.488Z,22.63
2018-12-05T09:09:15.981Z,22.65
2018-12-05T09:11:42.562Z,22.65
2018-12-05T09:14:09.058Z,22.66
2018-12-05T09:16:35.502Z,22.67
2018-12-05T09:19:02.161Z,22.71
2018-12-05T09:21:28.802Z,22.71
2018-12-05T09:23:55.310Z,22.70
2018-12-05T09:26:21.829Z,22.70
2018-12-05T09:28:48.282Z,22.71
2018-12-05T09:31:14.823Z,22.72
2018-12-05T09:33:41.365Z,22.74
2018-12-05T09:36:07.765Z,22.75
2018-12-05T09:38:34.225Z,22.75
2018-12-05T09:41:00.741Z,22.76
2018-12-05T09:43:27.193Z,22.78
2018-12-05T09:45:53.597Z,22.79
2018-12-05T09:48:20.050Z,22.82
2018-12-05T09:50:46.471Z,22.85
2018-12-05T09:53:12.925Z,22.84
2018-12-05T09:55:39.334Z,22.83
2018-12-05T09:58:05.785Z,22.74
2018-12-05T10:00:32.806Z,22.70
2018-12-05T10:02:59.268Z,22.79
2018-12-05T10:05:25.779Z,22.88
2018-12-05T10:07:52.334Z,23.01
2018-12-05T10:10:18.757Z,23.07
2018-12-05T10:12:45.216Z,23.19
2018-12-05T10:15:11.929Z,23.20
2018-12-05T10:17:38.378Z,23.26
2018-12-05T10:20:05.097Z,23.31
2018-12-05T10:22:31.644Z,23.38
2018-12-05T10:24:58.157Z,23.47
2018-12-05T10:27:24.630Z,23.53
2018-12-05T10:29:51.253Z,23.56
2018-12-05T10:32:17.667Z,23.60
2018-12-05T10:34:44.117Z,23.64
2018-12-05T10:37:10.525Z,23.76
2018-12-05T10:39:37.098Z,23.74
2018-12-05T10:42:03.721Z,23.74
2018-12-05T10:44:30.283Z,23.72
2018-12-05T10:46:56.866Z,23.74
2018-12-05T10:49:23.541Z,23.75
2018-12-05T10:51:50.094Z,23.77
2018-12-05T10:54:16.818Z,23.77
2018-12-05T10:56:43.441Z,23.79
2018-12-05T10:59:10.010Z,23.80
2018-12-05T11:01:36.489Z,23.80
2018-12-05T11:04:02.962Z,23.79
2018-12-05T11:06:29.353Z,23.80
2018-12-05T11:08:55.813Z,23.80
2018-12-05T11:11:22.224Z,23.80
2018-12-05T11:13:48.793Z,23.83
2018-12-05T11:16:15.409Z,23.82
2018-12-05T11:18:42.073Z,23.82
2018-12-05T11:21:08.583Z,23.84
2018-12-05T11:23:35.249Z,23.82
2018-12-05T11:26:01.779Z,23.82
2018-12-05T11:28:28.269Z,23.82
2018-12-05T11:30:54.721Z,23.89
2018-12-05T11:33:21.154Z,23.88
2018-12-05T11:35:47.589Z,24.04
2018-12-05T11:38:14.014Z,23.98
2018-12-05T11:40:40.583Z,23.91
2018-12-05T11:43:07.184Z,23.87
2018-12-05T11:45:33.769Z,23.87
2018-12-05T11:54:46.797Z,23.85
2018-12-05T11:57:13.260Z,23.73
2018-12-05T11:59:39.803Z,23.64
2018-12-05T12:02:06.548Z,23.58
2018-12-05T12:04:33.122Z,23.55
2018-12-05T12:06:59.545Z,23.53
2018-12-05T12:09:25.986Z,23.51
2018-12-05T12:11:52.558Z,23.48
2018-12-05T12:14:19.073Z,23.47
2018-12-05T12:16:45.537Z,23.46
2018-12-05T12:19:12.033Z,23.43
2018-12-05T12:21:38.482Z,23.42
2018-12-05T12:24:04.900Z,23.38
2018-12-05T12:26:33.384Z,23.38
2018-12-05T12:28:59.929Z,23.36
2018-12-05T12:31:26.353Z,23.34
2018-12-05T12:33:52.787Z,23.31
2018-12-05T12:36:19.230Z,23.27
2018-12-05T12:38:45.633Z,23.25
2018-12-05T12:41:12.089Z,23.23
2018-12-05T12:43:38.506Z,23.18
2018-12-05T12:46:04.965Z,23.16
2018-12-05T12:48:31.475Z,23.15
2018-12-05T12:50:57.925Z,23.09
2018-12-05T12:53:24.438Z,23.09
2018-12-05T12:55:51.008Z,23.06
2018-12-05T12:58:17.510Z,23.05
2018-12-05T13:00:44.186Z,23.03
2018-12-05T13:03:10.741Z,23.02
2018-12-05T13:05:37.265Z,22.99
2018-12-05T13:08:03.758Z,22.95
2018-12-05T13:10:30.286Z,22.97
2018-12-05T13:12:56.739Z,22.95
2018-12-05T13:15:23.369Z,22.92
2018-12-05T13:17:49.805Z,22.93
2018-12-05T13:20:16.225Z,22.93
2018-12-05T13:22:42.679Z,22.92
2018-12-05T13:25:09.185Z,22.89
2018-12-05T13:27:35.637Z,22.88
2018-12-05T13:30:02.334Z,22.88
2018-12-05T13:32:28.913Z,22.84
2018-12-05T13:34:55.437Z,22.84
2018-12-05T13:37:21.880Z,22.84
2018-12-05T13:39:48.411Z,22.81
2018-12-05T13:42:14.955Z,22.80
2018-12-05T13:44:41.601Z,22.78
2018-12-05T13:47:08.129Z,22.75
2018-12-05T13:49:34.538Z,22.76
2018-12-05T13:52:01.098Z,22.74
2018-12-05T13:54:27.625Z,22.72
2018-12-05T13:56:54.078Z,22.72
2018-12-05T13:59:20.585Z,22.71
2018-12-05T14:01:47.140Z,22.70
2018-12-05T14:04:13.870Z,22.67
2018-12-05T14:06:40.293Z,22.72
2018-12-05T14:09:06.939Z,22.74
2018-12-05T14:11:33.485Z,22.73
2018-12-05T14:14:00.001Z,22.74
2018-12-05T14:16:26.426Z,22.78
2018-12-05T14:18:52.972Z,22.79
2018-12-05T14:21:19.501Z,22.81
2018-12-05T14:23:46.058Z,22.84
2018-12-05T14:26:12.574Z,22.83
2018-12-05T14:28:39.025Z,22.86
2018-12-05T14:31:05.643Z,22.87
2018-12-05T14:33:32.085Z,22.89
2018-12-05T14:35:58.513Z,22.90
2018-12-05T14:38:24.961Z,22.91
2018-12-05T14:40:51.401Z,22.92
2018-12-05T14:43:17.899Z,22.92
2018-12-05T14:45:44.373Z,22.92
2018-12-05T14:48:10.874Z,22.92
2018-12-05T14:50:37.402Z,22.90
2018-12-05T14:53:03.943Z,22.88
2018-12-05T14:55:30.397Z,22.88
2018-12-05T14:57:57.017Z,22.87
2018-12-05T15:00:23.469Z,22.84
2018-12-05T15:02:49.874Z,22.83
2018-12-05T15:05:16.441Z,22.83
2018-12-05T15:07:42.962Z,22.82
2018-12-05T15:10:09.517Z,22.80
2018-12-05T15:12:36.023Z,22.80
2018-12-05T15:15:02.666Z,22.78
2018-12-05T15:17:29.196Z,22.76
2018-12-05T15:19:55.629Z,22.76
2018-12-05T15:22:22.074Z,22.73
2018-12-05T15:24:48.489Z,22.72
2018-12-05T15:27:14.942Z,22.70
2018-12-05T15:29:41.462Z,22.69
2018-12-05T15:32:07.914Z,22.67
2018-12-05T15:34:34.481Z,22.65
2018-12-05T15:37:00.969Z,22.65
2018-12-05T15:39:27.394Z,22.65
2018-12-05T15:41:53.837Z,22.64
2018-12-05T15:44:20.257Z,22.62
2018-12-05T15:46:46.713Z,22.61
2018-12-05T15:49:13.226Z,22.60
2018-12-05T15:51:39.807Z,22.60
2018-12-05T15:54:06.403Z,22.60
2018-12-05T15:56:33.060Z,22.56
2018-12-05T15:58:59.570Z,22.58
2018-12-05T16:01:26.133Z,22.56
2018-12-05T16:03:52.639Z,22.56
2018-12-05T16:06:20.022Z,22.56
2018-12-05T16:08:46.542Z,22.55
2018-12-05T16:11:12.993Z,22.56
2018-12-05T16:13:39.501Z,22.53
2018-12-05T16:16:05.968Z,22.54
2018-12-05T16:18:32.573Z,22.54
2018-12-05T16:20:59.138Z,22.53
2018-12-05T16:23:25.638Z,22.53
2018-12-05T16:25:52.167Z,22.51
2018-12-05T16:28:18.742Z,22.52
2018-12-05T16:30:45.233Z,22.53
2018-12-05T16:33:11.693Z,22.51
2018-12-05T16:35:38.209Z,22.51
2018-12-05T16:38:04.666Z,22.51
2018-12-05T16:40:31.176Z,22.50
2018-12-05T16:42:57.737Z,22.51
2018-12-05T16:45:24.257Z,22.50
2018-12-05T16:47:50.707Z,22.49
2018-12-05T16:50:17.326Z,22.49
2018-12-05T16:52:43.774Z,22.49
2018-12-05T16:55:10.293Z,22.49
2018-12-05T16:57:36.738Z,22.49
2018-12-05T17:00:04.153Z,22.48
2018-12-05T17:02:30.638Z,22.48
2018-12-05T17:04:57.254Z,22.47
2018-12-05T17:07:23.682Z,22.47
2018-12-05T17:09:50.121Z,22.46
2018-12-05T17:12:16.586Z,22.48
2018-12-05T17:14:43.197Z,22.42
2018-12-05T17:17:09.649Z,22.41
2018-12-05T17:19:36.259Z,22.40
2018-12-05T17:22:02.713Z,22.38
2018-12-05T17:24:29.210Z,22.37
2018-12-05T17:26:55.649Z,22.38
2018-12-05T17:29:22.097Z,22.37
2018-12-05T17:31:48.522Z,22.36
2018-12-05T17:34:14.974Z,22.36
2018-12-05T17:36:41.584Z,22.36
2018-12-05T17:39:08.157Z,22.35
2018-12-05T17:41:34.650Z,22.36
2018-12-05T17:44:01.230Z,22.36
2018-12-05T17:46:27.726Z,22.36
2018-12-05T17:48:54.298Z,22.37
2018-12-05T17:51:20.790Z,22.38
2018-12-05T17:53:47.369Z,22.36
2018-12-05T17:56:13.872Z,22.36
2018-12-05T17:58:40.429Z,22.37
2018-12-05T18:01:07.037Z,22.38
2018-12-05T18:03:33.513Z,22.35
2018-12-05T18:06:00.011Z,22.36
2018-12-05T18:08:26.457Z,22.37
2018-12-05T18:10:52.886Z,22.35
2018-12-05T18:13:19.432Z,22.34
2018-12-05T18:15:46.161Z,22.35
2018-12-05T18:18:12.605Z,22.34
2018-12-05T18:20:39.261Z,22.34
2018-12-05T18:23:05.769Z,22.36
2018-12-05T18:25:32.302Z,22.36
2018-12-05T18:27:58.841Z,22.36
2018-12-05T18:30:25.290Z,22.36
2018-12-05T18:32:51.778Z,22.38
2018-12-05T18:35:18.357Z,22.39
2018-12-05T18:37:44.850Z,22.37
2018-12-05T18:40:11.434Z,22.36
2018-12-05T18:42:38.033Z,22.36
2018-12-05T18:45:05.993Z,22.37
2018-12-05T18:47:32.428Z,22.36
2018-12-05T18:49:58.906Z,22.36
2018-12-05T18:52:25.402Z,22.36
2018-12-05T18:54:51.976Z,22.35
2018-12-05T18:57:18.693Z,22.34
2018-12-05T18:59:45.130Z,22.33
2018-12-05T19:02:11.645Z,22.33
2018-12-05T19:04:38.110Z,22.33
2018-12-05T19:07:04.613Z,22.32
2018-12-05T19:09:31.082Z,22.33
2018-12-05T19:11:57.576Z,22.32
2018-12-05T19:14:24.026Z,22.32
2018-12-05T19:16:50.441Z,22.31
2018-12-05T19:19:16.893Z,22.30
2018-12-05T19:21:43.309Z,22.34
2018-12-05T19:24:09.768Z,22.35
2018-12-05T19:26:36.421Z,22.34
2018-12-05T19:29:02.945Z,22.32
2018-12-05T19:31:29.449Z,22.33
2018-12-05T19:33:55.880Z,22.31
2018-12-05T19:36:22.333Z,22.31
2018-12-05T19:38:48.762Z,22.30
2018-12-05T19:41:15.321Z,22.30
2018-12-05T19:43:41.813Z,22.29
2018-12-05T19:46:08.265Z,22.29
2018-12-05T19:48:34.686Z,22.30
2018-12-05T19:51:01.258Z,22.28
2018-12-05T19:53:27.757Z,22.27
2018-12-05T19:55:54.310Z,22.28
2018-12-05T19:58:20.945Z,22.27
2018-12-05T20:00:47.478Z,22.28
2018-12-05T20:03:13.894Z,22.29
2018-12-05T20:05:40.351Z,22.30
2018-12-05T20:08:06.863Z,22.29
2018-12-05T20:10:33.310Z,22.32
2018-12-05T20:12:59.730Z,22.33
2018-12-05T20:15:26.195Z,22.32
2018-12-05T20:17:52.915Z,22.32
2018-12-05T20:20:19.352Z,22.31
2018-12-05T20:22:45.869Z,22.31
2018-12-05T20:25:12.321Z,22.32
2018-12-05T20:27:38.934Z,22.31
2018-12-05T20:30:06.882Z,22.31
2018-12-05T20:32:33.332Z,22.30
2018-12-05T20:34:59.798Z,22.30
2018-12-05T20:37:26.310Z,22.31
2018-12-05T20:39:52.774Z,22.30
2018-12-05T20:42:19.290Z,22.29
2018-12-05T20:44:45.799Z,22.30
2018-12-05T20:47:12.361Z,22.30
2018-12-05T20:49:38.766Z,22.30
2018-12-05T20:52:05.345Z,22.29
2018-12-05T20:54:31.837Z,22.28
2018-12-05T20:56:58.301Z,22.28
2018-12-05T20:59:24.913Z,22.26
2018-12-05T21:01:51.366Z,22.27
2018-12-05T21:04:17.769Z,22.28
2018-12-05T21:06:44.241Z,22.25
2018-12-05T21:09:10.849Z,22.24
2018-12-05T21:11:37.293Z,22.23
2018-12-05T21:14:03.953Z,22.23
2018-12-05T21:16:30.589Z,22.22
2018-12-05T21:18:57.085Z,22.20
2018-12-05T21:21:23.545Z,22.19
2018-12-05T21:23:49.955Z,22.19
2018-12-05T21:26:16.533Z,22.18
2018-12-05T21:28:43.026Z,22.18
2018-12-05T21:31:09.590Z,22.17
2018-12-05T21:33:36.098Z,22.17
2018-12-05T21:36:02.657Z,22.17
2018-12-05T21:38:29.166Z,22.16
2018-12-05T21:40:55.630Z,22.17
2018-12-05T21:43:22.238Z,22.16
2018-12-05T21:45:48.667Z,22.15
2018-12-05T21:48:15.121Z,22.16
2018-12-05T21:50:41.638Z,22.15
2018-12-05T21:53:08.087Z,22.14
2018-12-05T21:55:34.605Z,22.14
2018-12-05T21:58:01.059Z,22.15
2018-12-05T22:00:27.570Z,22.14
2018-12-05T22:02:54.024Z,22.15
2018-12-05T22:05:20.435Z,22.14
2018-12-05T22:07:46.906Z,22.13
2018-12-05T22:10:13.406Z,22.14
2018-12-05T22:12:39.977Z,22.13
2018-12-05T22:15:06.594Z,22.14
2018-12-05T22:17:33.125Z,22.11
2018-12-05T22:19:59.533Z,22.12
2018-12-05T22:22:26.225Z,22.13
2018-12-05T22:24:52.729Z,22.12
2018-12-05T22:27:19.177Z,22.12
2018-12-05T22:29:45.801Z,22.13
2018-12-05T22:32:12.225Z,22.12
2018-12-05T22:34:38.666Z,22.10
2018-12-05T22:37:05.095Z,22.11
2018-12-05T22:39:31.541Z,22.11
2018-12-05T22:41:58.045Z,22.10
2018-12-05T22:44:24.501Z,22.11
2018-12-05T22:46:51.038Z,22.09
2018-12-05T22:49:17.470Z,22.10
2018-12-05T22:51:43.893Z,22.09
2018-12-05T22:54:10.345Z,22.09
2018-12-05T22:56:36.855Z,22.09
2018-12-05T22:59:03.302Z,22.08
2018-12-05T23:01:29.821Z,22.08
2018-12-05T23:03:56.273Z,22.09
2018-12-05T23:06:22.689Z,22.08
2018-12-05T23:08:49.215Z,22.08
2018-12-05T23:11:15.696Z,22.08
2018-12-05T23:13:42.213Z,22.08
2018-12-05T23:16:08.713Z,22.07
2018-12-05T23:18:35.184Z,22.07
2018-12-05T23:21:01.686Z,22.07
2018-12-05T23:23:28.133Z,22.06
2018-12-05T23:25:54.673Z,22.07
2018-12-05T23:28:21.117Z,22.07
2018-12-05T23:30:47.624Z,22.05
2018-12-05T23:33:14.159Z,22.06
2018-12-05T23:35:40.626Z,22.06
2018-12-05T23:38:07.227Z,22.06
2018-12-05T23:40:33.678Z,22.05
2018-12-05T23:43:00.317Z,22.05
2018-12-05T23:45:26.757Z,22.05
2018-12-05T23:47:53.169Z,22.04
2018-12-05T23:50:19.622Z,22.04
2018-12-05T23:52:46.021Z,22.04
2018-12-05T23:55:12.483Z,22.05
2018-12-05T23:57:39.113Z,22.04
